Sira — V7QT5 — position and weather

sailwx.info

Track history (hours):
 
Tides and Currents Weather Stations Pressure Air Temp Water Temp Dewpoint Dewpoint Depression Visibility Wind Speed Wind Dir Waves Ship Positions

Sira

Last reported at 2015-Jan-22 19:05 UTC. Time now 2015-Jan-31 05:29 UTC.
Position S 33°60' E 027°04'.
Warning: this ship's position is 8 days out of date.

Length 147 m; draft 9.6 m.

MMSI: 538003434.

Date/timePositionNaut miles runAvg speedWind from/ knotsBaromVisibWave heightAir tempDewpointWater temp
2015-Jan-22 19:05S 33°60' E 027°04'30413.5
2015-Jan-21 20:33S 30°15' E 031°04'1413.5
2015-Jan-21 19:33S 30°02' E 031°09'1212.1
2015-Jan-21 18:33S 29°51' E 031°05'3 3.1
2015-Jan-21 17:32S 29°52' E 031°02'0 0.0
2015-Jan-21 16:32S 29°52' E 031°02'0 0.0
2015-Jan-21 15:32S 29°52' E 031°02'0 0.0
2015-Jan-21 14:32S 29°52' E 031°02'0 0.0
2015-Jan-21 13:32S 29°52' E 031°02'0 0.0
2015-Jan-21 12:32S 29°52' E 031°02'0 0.0
2015-Jan-21 11:32S 29°52' E 031°02'0 0.0
2015-Jan-21 10:32S 29°52' E 031°02'0 0.0
2015-Jan-21 09:32S 29°52' E 031°02'0 0.0
2015-Jan-21 08:32S 29°52' E 031°02'0 0.0
2015-Jan-21 07:32S 29°52' E 031°02'0 0.0
2015-Jan-21 06:32S 29°52' E 031°02'0 0.0
2015-Jan-21 05:33S 29°52' E 031°02'4 4.3
2015-Jan-21 04:32S 29°50' E 031°06'4 4.4
2015-Jan-21 03:31S 29°46' E 031°10'0 0.0
2015-Jan-21 02:31S 29°46' E 031°10'0 0.0
2015-Jan-21 01:25S 29°46' E 031°10'0 0.0
2015-Jan-21 00:25S 29°46' E 031°10'0 0.1
2015-Jan-20 23:31S 29°46' E 031°10'0 0.0
2015-Jan-20 22:31S 29°46' E 031°10'0 0.0
2015-Jan-20 21:31S 29°46' E 031°10'0 0.0
2015-Jan-20 20:31S 29°46' E 031°10'3 2.9
2015-Jan-20 19:33S 29°48' E 031°07'2 2.0
2015-Jan-20 18:33S 29°50' E 031°07'1 1.1
2015-Jan-20 17:33S 29°49' E 031°05'5 4.7
2015-Jan-20 16:33S 29°45' E 031°08'0 0.2
2015-Jan-20 15:31S 29°45' E 031°08'0 0.0
2015-Jan-20 14:31S 29°45' E 031°08'0 0.0
2015-Jan-20 13:31S 29°45' E 031°08'0 0.0
2015-Jan-20 12:31S 29°45' E 031°08'0 0.0
2015-Jan-20 11:31S 29°45' E 031°08'0 0.0
2015-Jan-20 10:25S 29°45' E 031°08'0 0.0
2015-Jan-20 09:31S 29°45' E 031°08'0 0.2
2015-Jan-20 08:33S 29°45' E 031°08'6 5.7
2015-Jan-20 07:33S 29°44' E 031°15'8 8.3
2015-Jan-20 06:33S 29°48' E 031°24'1010.2
2015-Jan-20 05:33S 29°47' E 031°35'1110.5
2015-Jan-20 04:31S 29°46' E 031°48'  
Track history (hours):
 
Tides and Currents Weather Stations Pressure Air Temp Water Temp Dewpoint Dewpoint Depression Visibility Wind Speed Wind Dir Waves Ship Positions

Sira

Last reported at 2015-Jan-22 19:05 UTC. Time now 2015-Jan-31 05:29 UTC.
Position S 33°60' E 027°04'.
Warning: this ship's position is 8 days out of date.

Length 147 m; draft 9.6 m.

MMSI: 538003434.

Date/timePositionNaut miles runAvg speedWind from/ knotsBaromVisibWave heightAir tempDewpointWater temp
2015-Jan-22 19:05S 33°60' E 027°04'30413.5
2015-Jan-21 20:33S 30°15' E 031°04'1413.5
2015-Jan-21 19:33S 30°02' E 031°09'1212.1
2015-Jan-21 18:33S 29°51' E 031°05'3 3.1
2015-Jan-21 17:32S 29°52' E 031°02'0 0.0
2015-Jan-21 16:32S 29°52' E 031°02'0 0.0
2015-Jan-21 15:32S 29°52' E 031°02'0 0.0
2015-Jan-21 14:32S 29°52' E 031°02'0 0.0
2015-Jan-21 13:32S 29°52' E 031°02'0 0.0
2015-Jan-21 12:32S 29°52' E 031°02'0 0.0
2015-Jan-21 11:32S 29°52' E 031°02'0 0.0
2015-Jan-21 10:32S 29°52' E 031°02'0 0.0
2015-Jan-21 09:32S 29°52' E 031°02'0 0.0
2015-Jan-21 08:32S 29°52' E 031°02'0 0.0
2015-Jan-21 07:32S 29°52' E 031°02'0 0.0
2015-Jan-21 06:32S 29°52' E 031°02'0 0.0
2015-Jan-21 05:33S 29°52' E 031°02'4 4.3
2015-Jan-21 04:32S 29°50' E 031°06'4 4.4
2015-Jan-21 03:31S 29°46' E 031°10'0 0.0
2015-Jan-21 02:31S 29°46' E 031°10'0 0.0
2015-Jan-21 01:25S 29°46' E 031°10'0 0.0
2015-Jan-21 00:25S 29°46' E 031°10'0 0.1
2015-Jan-20 23:31S 29°46' E 031°10'0 0.0
2015-Jan-20 22:31S 29°46' E 031°10'0 0.0
2015-Jan-20 21:31S 29°46' E 031°10'0 0.0
2015-Jan-20 20:31S 29°46' E 031°10'3 2.9
2015-Jan-20 19:33S 29°48' E 031°07'2 2.0
2015-Jan-20 18:33S 29°50' E 031°07'1 1.1
2015-Jan-20 17:33S 29°49' E 031°05'5 4.7
2015-Jan-20 16:33S 29°45' E 031°08'0 0.2
2015-Jan-20 15:31S 29°45' E 031°08'0 0.0
2015-Jan-20 14:31S 29°45' E 031°08'0 0.0
2015-Jan-20 13:31S 29°45' E 031°08'0 0.0
2015-Jan-20 12:31S 29°45' E 031°08'0 0.0
2015-Jan-20 11:31S 29°45' E 031°08'0 0.0
2015-Jan-20 10:25S 29°45' E 031°08'0 0.0
2015-Jan-20 09:31S 29°45' E 031°08'0 0.2
2015-Jan-20 08:33S 29°45' E 031°08'6 5.7
2015-Jan-20 07:33S 29°44' E 031°15'8 8.3
2015-Jan-20 06:33S 29°48' E 031°24'1010.2
2015-Jan-20 05:33S 29°47' E 031°35'1110.5
2015-Jan-20 04:31S 29°46' E 031°48'  

Dump ship's entire track history